Time;durP1;ratioP1;P1;durP2;ratioP2;P2;SDS_P1;SDS_P2;PMS_P1;PMS_P2;Temp;Humidity;BMP_temperature;BMP_pressure;BME280_temperature;BME280_humidity;BME280_pressure;Samples;Min_cycle;Max_cycle;Signal;HPM_P1;HPM_P2
2022/04/13 00:01:43;;;;;;;13.98;2.50;;;;;;;;;;5012646;28;20026;-47
2022/04/13 00:04:10;;;;;;;11.88;2.25;;;;;;;;;;5012425;28;20514;-48
2022/04/13 00:06:38;;;;;;;13.85;2.20;;;;;;;;;;5011709;28;20494;-45
2022/04/13 00:09:10;;;;;;;15.98;2.15;;;;;;;;;;5011274;28;20041;-46
2022/04/13 00:11:37;;;;;;;12.75;2.30;;;;;;;;;;5008836;28;20041;-46
2022/04/13 00:14:04;;;;;;;17.73;2.70;;;;;;;;;;5010863;28;20026;-46
2022/04/13 00:16:31;;;;;;;11.40;2.00;;;;;;;;;;5010875;28;20049;-50
2022/04/13 00:18:58;;;;;;;11.98;2.90;;;;;;;;;;5008486;28;20028;-50
2022/04/13 00:21:25;;;;;;;17.92;2.78;;;;;;;;;;5010127;28;20029;-45
2022/04/13 00:23:52;;;;;;;24.33;3.40;;;;;;;;;;5005809;28;20069;-41
2022/04/13 00:26:19;;;;;;;23.98;3.70;;;;;;;;;;5009400;28;20086;-42
2022/04/13 00:28:46;;;;;;;26.65;3.80;;;;;;;;;;5009732;28;20021;-41
2022/04/13 00:31:13;;;;;;;26.42;4.07;;;;;;;;;;5010635;28;20025;-40
2022/04/13 00:33:40;;;;;;;31.92;3.58;;;;;;;;;;5011630;28;20042;-41
2022/04/13 00:36:07;;;;;;;17.73;3.55;;;;;;;;;;5011012;28;20060;-42
2022/04/13 00:38:34;;;;;;;39.78;3.92;;;;;;;;;;4992544;28;20041;-41
2022/04/13 00:41:06;;;;;;;18.25;3.30;;;;;;;;;;5008840;28;20041;-40
2022/04/13 00:43:33;;;;;;;27.27;4.35;;;;;;;;;;5011548;28;20480;-42
2022/04/13 00:46:00;;;;;;;22.48;4.18;;;;;;;;;;5012078;28;20033;-39
2022/04/13 00:48:36;;;;;;;19.42;4.15;;;;;;;;;;5011494;28;20025;-42
2022/04/13 00:51:04;;;;;;;19.15;4.47;;;;;;;;;;5011533;28;20121;-41
2022/04/13 00:53:31;;;;;;;17.38;4.40;;;;;;;;;;5011219;28;20018;-39
2022/04/13 00:55:59;;;;;;;23.70;5.35;;;;;;;;;;5012187;28;20399;-41
2022/04/13 00:58:32;;;;;;;28.60;5.80;;;;;;;;;;5010579;28;20431;-39
2022/04/13 01:01:02;;;;;;;28.70;7.65;;;;;;;;;;5012113;28;20723;-42
2022/04/13 01:03:29;;;;;;;36.30;9.73;;;;;;;;;;5010613;28;20030;-41
2022/04/13 01:05:57;;;;;;;40.47;11.85;;;;;;;;;;5011604;28;20080;-43
2022/04/13 01:08:25;;;;;;;43.83;14.77;;;;;;;;;;5011958;28;20079;-41
2022/04/13 01:10:52;;;;;;;51.15;18.55;;;;;;;;;;5011869;28;20041;-41
2022/04/13 01:13:20;;;;;;;57.53;27.17;;;;;;;;;;5010579;28;20022;-41
2022/04/13 01:15:47;;;;;;;67.15;29.98;;;;;;;;;;5011316;28;20034;-41
2022/04/13 01:18:14;;;;;;;67.07;30.20;;;;;;;;;;5011505;28;20060;-41
2022/04/13 01:20:52;;;;;;;66.40;29.33;;;;;;;;;;5011239;28;20161;-42
2022/04/13 01:23:23;;;;;;;58.88;27.55;;;;;;;;;;5011159;28;20022;-41
2022/04/13 01:25:50;;;;;;;55.65;26.35;;;;;;;;;;5012152;28;20029;-41
2022/04/13 01:28:17;;;;;;;49.80;24.13;;;;;;;;;;5009980;28;20542;-39
2022/04/13 01:30:44;;;;;;;56.92;23.83;;;;;;;;;;5011551;28;20026;-41
2022/04/13 01:33:11;;;;;;;41.75;21.05;;;;;;;;;;5011187;28;20403;-39
2022/04/13 01:35:38;;;;;;;44.50;20.70;;;;;;;;;;5010782;28;20026;-41
2022/04/13 01:38:06;;;;;;;45.80;20.33;;;;;;;;;;5011362;28;20507;-41
2022/04/13 01:40:33;;;;;;;44.42;19.55;;;;;;;;;;5011089;28;20036;-41
2022/04/13 01:43:00;;;;;;;35.83;18.13;;;;;;;;;;5010116;28;20030;-39
2022/04/13 01:45:27;;;;;;;37.97;18.48;;;;;;;;;;5011411;28;20049;-41
2022/04/13 01:47:54;;;;;;;43.28;16.90;;;;;;;;;;5011517;28;20052;-42
2022/04/13 01:50:21;;;;;;;40.65;16.73;;;;;;;;;;5016362;28;20040;-39
2022/04/13 01:52:49;;;;;;;39.67;17.45;;;;;;;;;;5017141;28;20361;-41
2022/04/13 01:55:16;;;;;;;41.70;16.83;;;;;;;;;;5017769;28;20018;-41
2022/04/13 01:57:43;;;;;;;37.25;15.90;;;;;;;;;;5017173;28;20034;-41
2022/04/13 02:00:13;;;;;;;34.72;14.80;;;;;;;;;;5017975;28;20095;-40
2022/04/13 02:02:40;;;;;;;32.35;16.20;;;;;;;;;;4999635;28;20034;-44
2022/04/13 02:05:08;;;;;;;38.33;15.60;;;;;;;;;;5016488;28;20076;-41
2022/04/13 02:07:35;;;;;;;33.35;14.80;;;;;;;;;;5017887;28;20452;-41
2022/04/13 02:10:02;;;;;;;34.88;13.65;;;;;;;;;;5017079;28;20120;-38
2022/04/13 02:12:29;;;;;;;31.60;12.85;;;;;;;;;;4999853;28;20069;-41
2022/04/13 02:14:56;;;;;;;34.00;13.48;;;;;;;;;;5016481;28;20033;-41
2022/04/13 02:17:23;;;;;;;29.77;13.10;;;;;;;;;;5018418;28;20022;-41
2022/04/13 02:19:50;;;;;;;29.15;13.27;;;;;;;;;;5017656;28;20025;-41
2022/04/13 02:22:17;;;;;;;24.50;12.88;;;;;;;;;;5017934;28;20026;-41
2022/04/13 02:24:44;;;;;;;26.73;12.40;;;;;;;;;;5018150;28;20026;-40
2022/04/13 02:27:12;;;;;;;31.27;12.00;;;;;;;;;;5017865;28;20030;-41
2022/04/13 02:29:40;;;;;;;29.48;11.82;;;;;;;;;;5009469;28;20041;-41
2022/04/13 02:32:08;;;;;;;23.90;10.90;;;;;;;;;;5016993;28;20412;-40
2022/04/13 02:34:35;;;;;;;25.55;11.57;;;;;;;;;;5018409;28;20030;-41
2022/04/13 02:37:02;;;;;;;27.58;12.32;;;;;;;;;;5017768;28;20084;-41
2022/04/13 02:39:29;;;;;;;24.27;11.60;;;;;;;;;;5017906;28;20396;-41
2022/04/13 02:41:55;;;;;;;24.50;10.95;;;;;;;;;;5018451;28;20399;-41
2022/04/13 02:44:22;;;;;;;24.23;11.77;;;;;;;;;;5017441;28;20037;-41
2022/04/13 02:46:49;;;;;;;19.23;10.50;;;;;;;;;;5018317;28;20057;-41
2022/04/13 02:49:16;;;;;;;26.20;11.57;;;;;;;;;;5017369;28;20026;-41
2022/04/13 02:51:43;;;;;;;23.13;10.40;;;;;;;;;;5018448;28;20478;-41
2022/04/13 02:54:10;;;;;;;23.27;9.90;;;;;;;;;;5018553;28;20488;-40
2022/04/13 02:56:37;;;;;;;20.95;9.13;;;;;;;;;;5017628;28;20052;-41
2022/04/13 02:59:04;;;;;;;19.70;9.50;;;;;;;;;;5018011;28;20429;-41
2022/04/13 03:01:31;;;;;;;15.95;8.85;;;;;;;;;;4996526;28;20117;-41
2022/04/13 03:03:58;;;;;;;20.52;9.45;;;;;;;;;;5014491;28;20080;-40
2022/04/13 03:06:25;;;;;;;22.48;10.63;;;;;;;;;;5015086;28;20077;-40
2022/04/13 03:08:52;;;;;;;15.90;8.95;;;;;;;;;;5015261;28;20487;-40
2022/04/13 03:11:19;;;;;;;17.05;8.55;;;;;;;;;;5014518;28;20061;-40
2022/04/13 03:13:46;;;;;;;18.05;8.90;;;;;;;;;;5014151;28;20041;-40
2022/04/13 03:16:13;;;;;;;16.50;9.32;;;;;;;;;;5015011;28;20034;-41
2022/04/13 03:18:40;;;;;;;19.20;9.00;;;;;;;;;;4997294;28;20044;-41
2022/04/13 03:21:07;;;;;;;18.25;8.70;;;;;;;;;;5013973;28;20038;-40
2022/04/13 03:23:34;;;;;;;17.13;8.30;;;;;;;;;;5014907;28;20064;-41
2022/04/13 03:26:01;;;;;;;14.82;7.80;;;;;;;;;;5014069;28;20037;-40
2022/04/13 03:28:28;;;;;;;19.38;8.55;;;;;;;;;;5014874;28;20026;-40
2022/04/13 03:30:56;;;;;;;17.70;8.38;;;;;;;;;;5014507;28;20101;-40
2022/04/13 03:33:23;;;;;;;16.33;7.60;;;;;;;;;;5013645;28;20062;-40
2022/04/13 03:35:50;;;;;;;15.38;7.93;;;;;;;;;;5014719;28;20034;-41
2022/04/13 03:38:17;;;;;;;21.40;7.90;;;;;;;;;;5013622;28;20088;-40
2022/04/13 03:40:44;;;;;;;14.13;7.35;;;;;;;;;;5014624;28;20022;-41
2022/04/13 03:43:11;;;;;;;18.20;7.90;;;;;;;;;;4996815;28;20456;-40
2022/04/13 03:45:38;;;;;;;14.40;7.32;;;;;;;;;;5013731;28;20033;-41
2022/04/13 03:48:05;;;;;;;17.00;7.88;;;;;;;;;;5014183;28;20107;-41
2022/04/13 03:50:32;;;;;;;15.23;7.05;;;;;;;;;;4995761;28;20424;-41
2022/04/13 03:52:59;;;;;;;15.55;6.95;;;;;;;;;;5014272;28;20030;-40
2022/04/13 03:55:26;;;;;;;13.65;6.53;;;;;;;;;;5013455;28;20471;-40
2022/04/13 03:57:53;;;;;;;14.52;6.80;;;;;;;;;;4996313;28;20404;-41
2022/04/13 04:00:20;;;;;;;14.10;7.18;;;;;;;;;;5013450;28;20113;-40
2022/04/13 04:02:47;;;;;;;12.75;6.78;;;;;;;;;;5014130;28;20045;-41
2022/04/13 04:05:14;;;;;;;15.55;6.78;;;;;;;;;;5013756;28;20026;-41
2022/04/13 04:07:42;;;;;;;11.82;6.40;;;;;;;;;;5014159;28;20042;-41
2022/04/13 04:10:09;;;;;;;12.93;6.78;;;;;;;;;;5012930;28;20026;-41
2022/04/13 04:12:40;;;;;;;14.55;6.45;;;;;;;;;;5012907;28;20038;-40
2022/04/13 04:15:09;;;;;;;10.90;6.22;;;;;;;;;;5013433;28;20030;-40
2022/04/13 04:17:36;;;;;;;13.35;5.75;;;;;;;;;;5013531;28;20037;-40
2022/04/13 04:20:04;;;;;;;13.80;6.05;;;;;;;;;;5013412;28;20037;-41
2022/04/13 04:22:31;;;;;;;12.27;6.25;;;;;;;;;;5013276;28;20178;-40
2022/04/13 04:25:01;;;;;;;11.95;6.35;;;;;;;;;;5013252;28;20038;-40
2022/04/13 04:27:28;;;;;;;11.63;5.63;;;;;;;;;;5013490;28;20065;-40
2022/04/13 04:29:55;;;;;;;11.63;5.88;;;;;;;;;;5013072;28;20439;-40
2022/04/13 04:32:22;;;;;;;10.82;5.28;;;;;;;;;;5012457;28;20081;-40
2022/04/13 04:34:49;;;;;;;10.05;5.38;;;;;;;;;;5013661;28;20026;-40
2022/04/13 04:37:16;;;;;;;11.43;6.15;;;;;;;;;;5012936;28;20038;-40
2022/04/13 04:39:43;;;;;;;10.20;5.45;;;;;;;;;;5012971;28;20034;-40
2022/04/13 04:42:10;;;;;;;11.48;5.20;;;;;;;;;;5012418;28;20404;-40
2022/04/13 04:44:37;;;;;;;10.40;5.45;;;;;;;;;;5012635;28;20472;-40
2022/04/13 04:47:04;;;;;;;8.45;4.95;;;;;;;;;;5013161;28;20034;-40
2022/04/13 04:49:31;;;;;;;10.95;5.00;;;;;;;;;;5013299;28;20419;-41
2022/04/13 04:51:58;;;;;;;9.57;4.63;;;;;;;;;;5013302;28;20419;-40
2022/04/13 04:54:25;;;;;;;8.88;4.82;;;;;;;;;;5012468;28;20495;-40
2022/04/13 04:56:52;;;;;;;6.68;4.20;;;;;;;;;;5012719;28;20034;-41
2022/04/13 04:59:19;;;;;;;8.50;4.60;;;;;;;;;;5012735;28;20399;-41
2022/04/13 05:01:46;;;;;;;7.47;4.38;;;;;;;;;;5012710;28;20030;-40
2022/04/13 05:04:12;;;;;;;8.05;4.88;;;;;;;;;;5012929;28;20045;-41
2022/04/13 05:06:39;;;;;;;9.93;4.47;;;;;;;;;;5012568;28;20045;-40
2022/04/13 05:09:07;;;;;;;8.25;3.83;;;;;;;;;;5012374;28;20026;-41
2022/04/13 05:11:34;;;;;;;8.38;4.60;;;;;;;;;;5012355;28;20088;-40
2022/04/13 05:14:01;;;;;;;9.48;4.57;;;;;;;;;;5011941;28;20384;-40
2022/04/13 05:16:28;;;;;;;8.27;4.63;;;;;;;;;;5012904;28;20105;-40
2022/04/13 05:18:55;;;;;;;7.70;4.05;;;;;;;;;;5012187;28;20032;-41
2022/04/13 05:21:21;;;;;;;8.18;4.53;;;;;;;;;;5012644;28;20053;-40
2022/04/13 05:23:49;;;;;;;7.03;3.83;;;;;;;;;;5011979;28;20531;-40
2022/04/13 05:26:18;;;;;;;7.15;3.80;;;;;;;;;;5012122;28;20030;-40
2022/04/13 05:28:46;;;;;;;6.50;3.42;;;;;;;;;;5012526;28;20034;-47
2022/04/13 05:31:13;;;;;;;8.20;3.80;;;;;;;;;;5011997;28;20038;-41
2022/04/13 05:33:40;;;;;;;8.40;3.97;;;;;;;;;;5012132;28;20049;-40
2022/04/13 05:36:07;;;;;;;7.43;3.83;;;;;;;;;;5012125;28;20030;-40
2022/04/13 05:38:34;;;;;;;7.47;4.07;;;;;;;;;;5011967;28;20037;-41
2022/04/13 05:41:01;;;;;;;6.80;3.90;;;;;;;;;;5011980;28;20101;-40
2022/04/13 05:43:33;;;;;;;6.43;3.53;;;;;;;;;;5012488;28;20391;-40
2022/04/13 05:46:00;;;;;;;6.82;3.83;;;;;;;;;;5012093;28;20137;-40
2022/04/13 05:48:27;;;;;;;7.55;4.20;;;;;;;;;;5011876;28;20060;-40
2022/04/13 05:50:54;;;;;;;5.82;3.50;;;;;;;;;;5011660;28;20026;-40
2022/04/13 05:53:22;;;;;;;6.78;3.42;;;;;;;;;;5012326;28;20205;-40
2022/04/13 05:55:55;;;;;;;6.13;3.45;;;;;;;;;;5011819;28;20044;-41
2022/04/13 05:58:26;;;;;;;6.70;3.53;;;;;;;;;;5011922;28;20033;-40
2022/04/13 06:00:53;;;;;;;7.72;3.47;;;;;;;;;;5012016;28;20399;-40
2022/04/13 06:03:22;;;;;;;6.22;3.15;;;;;;;;;;5011351;28;20033;-40
2022/04/13 06:05:49;;;;;;;6.28;3.47;;;;;;;;;;5012207;28;20036;-40
2022/04/13 06:08:16;;;;;;;5.05;3.20;;;;;;;;;;4994643;28;20026;-40
2022/04/13 06:10:43;;;;;;;5.88;3.00;;;;;;;;;;5011431;28;20100;-41
2022/04/13 06:13:10;;;;;;;5.65;3.25;;;;;;;;;;5011602;28;20034;-40
2022/04/13 06:15:37;;;;;;;7.28;3.13;;;;;;;;;;5011916;28;20108;-40
2022/04/13 06:18:04;;;;;;;7.22;3.40;;;;;;;;;;5012022;28;20030;-40
2022/04/13 06:20:31;;;;;;;6.20;3.10;;;;;;;;;;5011248;28;20053;-40
2022/04/13 06:22:58;;;;;;;5.20;3.05;;;;;;;;;;5012274;28;20130;-40
2022/04/13 06:25:25;;;;;;;5.88;2.80;;;;;;;;;;5011402;28;20034;-40
2022/04/13 06:27:52;;;;;;;5.75;2.97;;;;;;;;;;5012115;28;20037;-40
2022/04/13 06:30:19;;;;;;;4.20;2.55;;;;;;;;;;5011701;28;20395;-40
2022/04/13 06:32:46;;;;;;;4.10;2.63;;;;;;;;;;5157895;23;20058;-42
2022/04/13 06:35:15;;;;;;;4.72;3.05;;;;;;;;;;5011130;28;20029;-42
2022/04/13 06:37:43;;;;;;;4.63;2.55;;;;;;;;;;5015855;28;20467;-42
2022/04/13 06:40:10;;;;;;;4.13;2.63;;;;;;;;;;5015355;28;20395;-41
2022/04/13 06:42:38;;;;;;;4.22;2.50;;;;;;;;;;5014995;28;20022;-42
2022/04/13 06:45:06;;;;;;;3.00;2.10;;;;;;;;;;5015803;28;20145;-42
2022/04/13 06:47:33;;;;;;;4.00;2.40;;;;;;;;;;5014521;28;20044;-42
2022/04/13 06:50:00;;;;;;;3.30;2.33;;;;;;;;;;5015325;28;20104;-43
2022/04/13 06:52:27;;;;;;;4.90;2.50;;;;;;;;;;5014703;28;20430;-40
2022/04/13 06:54:54;;;;;;;4.43;2.53;;;;;;;;;;5015553;28;20084;-41
2022/04/13 06:57:21;;;;;;;3.63;2.10;;;;;;;;;;5014234;28;20431;-41
2022/04/13 06:59:48;;;;;;;3.00;2.30;;;;;;;;;;5015220;28;20057;-40
2022/04/13 07:02:15;;;;;;;2.88;2.00;;;;;;;;;;5014635;28;20100;-40
2022/04/13 07:04:42;;;;;;;4.80;2.40;;;;;;;;;;5015006;28;20044;-41
2022/04/13 07:07:09;;;;;;;4.53;2.33;;;;;;;;;;5014472;28;20391;-41
2022/04/13 07:09:36;;;;;;;4.25;2.15;;;;;;;;;;5014981;28;20018;-41
2022/04/13 07:12:04;;;;;;;3.72;2.42;;;;;;;;;;5014613;28;20018;-41
2022/04/13 07:14:31;;;;;;;3.38;2.08;;;;;;;;;;5015105;28;20037;-42
2022/04/13 07:16:58;;;;;;;3.33;2.20;;;;;;;;;;5014780;28;20055;-41
2022/04/13 07:19:25;;;;;;;4.15;2.10;;;;;;;;;;5014337;28;20054;-42
2022/04/13 07:21:52;;;;;;;3.78;2.03;;;;;;;;;;5014147;28;20018;-42
2022/04/13 07:24:19;;;;;;;4.53;2.22;;;;;;;;;;5014672;28;20505;-42
2022/04/13 07:26:46;;;;;;;2.78;1.88;;;;;;;;;;5014161;28;20026;-42
2022/04/13 07:29:13;;;;;;;3.70;2.05;;;;;;;;;;5014918;28;20014;-42
2022/04/13 07:31:40;;;;;;;3.17;1.70;;;;;;;;;;5013693;28;20454;-43
2022/04/13 07:34:07;;;;;;;2.83;1.70;;;;;;;;;;5014519;28;20030;-44
2022/04/13 07:36:34;;;;;;;3.28;1.85;;;;;;;;;;5014511;28;20026;-44
2022/04/13 07:39:02;;;;;;;2.88;1.85;;;;;;;;;;5013884;28;20026;-44
2022/04/13 07:41:30;;;;;;;3.53;2.08;;;;;;;;;;5014060;28;20033;-42
2022/04/13 07:43:57;;;;;;;3.25;2.10;;;;;;;;;;5014332;28;20030;-42
2022/04/13 07:46:29;;;;;;;2.95;1.80;;;;;;;;;;5013654;28;20029;-42
2022/04/13 07:48:56;;;;;;;3.63;1.70;;;;;;;;;;5013910;28;20037;-44
2022/04/13 07:51:23;;;;;;;2.78;1.70;;;;;;;;;;5013926;28;20476;-44
2022/04/13 07:53:50;;;;;;;3.33;1.80;;;;;;;;;;5013795;28;20025;-44
2022/04/13 07:56:16;;;;;;;3.58;2.00;;;;;;;;;;5013952;28;20471;-44
2022/04/13 07:58:43;;;;;;;2.60;1.67;;;;;;;;;;5013432;28;20076;-41
2022/04/13 08:01:10;;;;;;;2.50;1.75;;;;;;;;;;5013817;28;20394;-41
2022/04/13 08:03:37;;;;;;;2.03;1.42;;;;;;;;;;5013413;28;20034;-41
2022/04/13 08:06:04;;;;;;;2.45;1.75;;;;;;;;;;5014209;28;20498;-41
2022/04/13 08:08:31;;;;;;;2.38;1.70;;;;;;;;;;5013488;28;20025;-40
2022/04/13 08:10:58;;;;;;;4.57;1.73;;;;;;;;;;5013450;28;20033;-41
2022/04/13 08:13:25;;;;;;;2.63;1.90;;;;;;;;;;5013879;28;20076;-41
2022/04/13 08:15:52;;;;;;;2.63;1.60;;;;;;;;;;5013121;28;20022;-41
2022/04/13 08:18:19;;;;;;;2.47;1.50;;;;;;;;;;5013433;28;20495;-41
2022/04/13 08:20:46;;;;;;;1.90;1.20;;;;;;;;;;5013295;28;20033;-41
2022/04/13 08:23:13;;;;;;;3.13;1.50;;;;;;;;;;5013817;28;20097;-40
2022/04/13 08:25:40;;;;;;;2.08;1.35;;;;;;;;;;5012692;28;20041;-40
2022/04/13 08:28:07;;;;;;;1.58;1.30;;;;;;;;;;5013693;28;20029;-41
2022/04/13 08:30:34;;;;;;;1.95;1.55;;;;;;;;;;5013149;28;20075;-40
2022/04/13 08:33:01;;;;;;;2.30;1.40;;;;;;;;;;5012551;28;20072;-40
2022/04/13 08:35:28;;;;;;;2.38;1.23;;;;;;;;;;5012817;28;20018;-41
2022/04/13 08:37:55;;;;;;;2.25;1.63;;;;;;;;;;5013193;28;20026;-41
2022/04/13 08:40:22;;;;;;;1.75;1.20;;;;;;;;;;5012993;28;20387;-40
2022/04/13 08:42:53;;;;;;;1.73;1.20;;;;;;;;;;5012581;28;20093;-41
2022/04/13 08:45:20;;;;;;;1.67;1.20;;;;;;;;;;5013420;28;20377;-40
2022/04/13 08:47:49;;;;;;;1.60;1.20;;;;;;;;;;5012976;28;20705;-41
2022/04/13 08:50:17;;;;;;;1.73;1.35;;;;;;;;;;5013082;28;20017;-41
2022/04/13 08:52:48;;;;;;;2.33;1.38;;;;;;;;;;5012616;28;20013;-41
2022/04/13 08:55:16;;;;;;;1.75;1.17;;;;;;;;;;5012836;28;20029;-40
2022/04/13 08:57:48;;;;;;;1.33;1.10;;;;;;;;;;5012132;28;20030;-41
2022/04/13 09:00:17;;;;;;;2.30;1.20;;;;;;;;;;5012838;28;20476;-41
2022/04/13 09:03:02;;;;;;;1.90;1.35;;;;;;;;;;5011382;28;20439;-40
2022/04/13 09:05:30;;;;;;;2.08;1.17;;;;;;;;;;5013094;28;20026;-41
2022/04/13 09:08:02;;;;;;;2.00;1.27;;;;;;;;;;5012011;28;20041;-41
2022/04/13 09:10:30;;;;;;;2.00;1.17;;;;;;;;;;5013237;28;20129;-41
2022/04/13 09:12:57;;;;;;;1.85;1.17;;;;;;;;;;5012613;28;20439;-42
2022/04/13 09:15:24;;;;;;;2.17;1.35;;;;;;;;;;5012453;28;20025;-40
2022/04/13 09:17:52;;;;;;;1.58;1.00;;;;;;;;;;5011974;28;20021;-41
2022/04/13 09:20:19;;;;;;;3.33;1.25;;;;;;;;;;5012217;28;20176;-41
2022/04/13 09:22:47;;;;;;;1.58;1.00;;;;;;;;;;5012245;28;20022;-41
2022/04/13 09:25:14;;;;;;;1.80;1.10;;;;;;;;;;5011876;28;20026;-40
2022/04/13 09:27:41;;;;;;;2.65;0.80;;;;;;;;;;5012788;28;20391;-41
2022/04/13 09:30:09;;;;;;;1.40;0.98;;;;;;;;;;5012127;28;20041;-42
2022/04/13 09:32:36;;;;;;;3.13;1.20;;;;;;;;;;5011978;28;20061;-40
2022/04/13 09:35:04;;;;;;;1.58;1.00;;;;;;;;;;5011264;28;20030;-41
2022/04/13 09:37:32;;;;;;;2.05;1.10;;;;;;;;;;5011510;28;20057;-41
2022/04/13 09:40:00;;;;;;;2.03;0.90;;;;;;;;;;5011780;28;20088;-41
2022/04/13 09:42:27;;;;;;;1.95;1.05;;;;;;;;;;5011915;28;20026;-43
2022/04/13 09:44:56;;;;;;;1.58;0.98;;;;;;;;;;5011838;28;20079;-44
2022/04/13 09:47:23;;;;;;;4.38;1.00;;;;;;;;;;5012431;28;20728;-44
2022/04/13 09:49:53;;;;;;;2.00;1.00;;;;;;;;;;5011612;28;20045;-42
2022/04/13 09:52:40;;;;;;;1.33;1.00;;;;;;;;;;5011608;28;20109;-41
2022/04/13 09:55:08;;;;;;;1.45;0.85;;;;;;;;;;5011767;28;20368;-42
2022/04/13 09:57:35;;;;;;;2.08;1.00;;;;;;;;;;5011866;28;20037;-42
2022/04/13 10:00:03;;;;;;;1.98;1.00;;;;;;;;;;5012002;28;20022;-42
2022/04/13 10:02:37;;;;;;;2.53;0.82;;;;;;;;;;5011677;28;20096;-42
2022/04/13 10:05:05;;;;;;;1.15;0.90;;;;;;;;;;5012360;28;20022;-41
2022/04/13 10:07:32;;;;;;;1.67;0.90;;;;;;;;;;5011428;28;20038;-41
2022/04/13 10:09:59;;;;;;;1.13;0.95;;;;;;;;;;5013188;28;20029;-42
2022/04/13 10:12:26;;;;;;;1.30;0.80;;;;;;;;;;5016165;28;20498;-41
2022/04/13 10:14:53;;;;;;;2.20;1.13;;;;;;;;;;4997681;28;20503;-41
2022/04/13 10:17:20;;;;;;;1.33;0.80;;;;;;;;;;5015728;28;20033;-41
2022/04/13 10:19:58;;;;;;;1.08;0.73;;;;;;;;;;5015641;28;20033;-42
2022/04/13 10:22:25;;;;;;;1.75;0.98;;;;;;;;;;5015851;28;20030;-41
2022/04/13 10:24:53;;;;;;;1.30;0.70;;;;;;;;;;5015548;28;20161;-42
2022/04/13 10:27:20;;;;;;;2.20;0.73;;;;;;;;;;5015915;28;20037;-44
2022/04/13 10:29:48;;;;;;;1.30;0.80;;;;;;;;;;5014943;28;20026;-42
2022/04/13 10:32:25;;;;;;;1.52;0.90;;;;;;;;;;5015680;28;20058;-42
2022/04/13 10:34:56;;;;;;;1.17;1.00;;;;;;;;;;5014560;28;20030;-41
2022/04/13 10:37:24;;;;;;;1.00;0.75;;;;;;;;;;5014426;28;20053;-41
2022/04/13 10:39:59;;;;;;;0.95;0.70;;;;;;;;;;5014880;28;20430;-41
2022/04/13 10:42:28;;;;;;;1.60;0.80;;;;;;;;;;5015327;28;20116;-45
2022/04/13 10:45:06;;;;;;;0.88;0.70;;;;;;;;;;5014682;28;20034;-42
2022/04/13 10:48:05;;;;;;;1.00;0.60;;;;;;;;;;5015018;28;20531;-42
2022/04/13 10:50:35;;;;;;;1.33;0.90;;;;;;;;;;4982578;28;20042;-42
2022/04/13 10:53:13;;;;;;;1.00;0.80;;;;;;;;;;5014660;28;20022;-41
2022/04/13 10:55:42;;;;;;;1.35;0.82;;;;;;;;;;5014419;28;20034;-41
2022/04/13 10:58:19;;;;;;;2.30;0.85;;;;;;;;;;5014779;28;20395;-42
2022/04/13 11:00:49;;;;;;;0.70;0.60;;;;;;;;;;5014481;28;20030;-44
2022/04/13 11:03:16;;;;;;;1.25;0.80;;;;;;;;;;5015077;28;20038;-44
2022/04/13 11:05:44;;;;;;;2.20;0.80;;;;;;;;;;5014925;28;20622;-43
2022/04/13 11:08:27;;;;;;;1.63;0.90;;;;;;;;;;4997477;28;20483;-43
2022/04/13 11:10:54;;;;;;;2.22;0.90;;;;;;;;;;5014584;28;20361;-43
2022/04/13 11:13:22;;;;;;;1.40;0.98;;;;;;;;;;5014162;28;20026;-43
2022/04/13 11:15:50;;;;;;;2.08;0.80;;;;;;;;;;5014062;28;20030;-40
2022/04/13 11:18:18;;;;;;;2.88;0.90;;;;;;;;;;5010163;28;20041;-42
2022/04/13 11:21:00;;;;;;;2.83;1.00;;;;;;;;;;5011672;28;20018;-44
2022/04/13 11:23:56;;;;;;;2.42;1.10;;;;;;;;;;5014332;28;20068;-40
2022/04/13 11:26:35;;;;;;;3.05;0.80;;;;;;;;;;4992774;28;20064;-41
2022/04/13 11:29:11;;;;;;;2.33;1.10;;;;;;;;;;5012743;28;20076;-43
2022/04/13 11:32:01;;;;;;;2.33;1.10;;;;;;;;;;5014037;28;20073;-42
2022/04/13 11:34:28;;;;;;;3.13;1.20;;;;;;;;;;5001315;28;20092;-41
2022/04/13 11:36:59;;;;;;;5.45;0.90;;;;;;;;;;5013106;28;20026;-39
2022/04/13 11:39:55;;;;;;;3.38;1.00;;;;;;;;;;5013081;28;20030;-42
2022/04/13 11:42:24;;;;;;;1.85;0.82;;;;;;;;;;5013006;28;20065;-37
2022/04/13 11:44:54;;;;;;;1.75;0.90;;;;;;;;;;5013809;28;20041;-38
2022/04/13 11:47:22;;;;;;;2.70;0.90;;;;;;;;;;5013264;28;20073;-37
2022/04/13 11:49:56;;;;;;;1.60;0.80;;;;;;;;;;5013312;28;20045;-37
2022/04/13 11:52:42;;;;;;;2.92;0.93;;;;;;;;;;5011538;28;20480;-37
2022/04/13 11:55:19;;;;;;;3.13;0.80;;;;;;;;;;5013497;28;20109;-40
2022/04/13 11:58:02;;;;;;;2.67;0.93;;;;;;;;;;5013430;28;20104;-40
2022/04/13 12:00:38;;;;;;;1.35;0.90;;;;;;;;;;5013002;28;20455;-38
2022/04/13 12:03:15;;;;;;;2.97;1.00;;;;;;;;;;5012817;28;20029;-39
2022/04/13 12:05:44;;;;;;;2.95;1.00;;;;;;;;;;5013432;28;20064;-36
2022/04/13 12:08:12;;;;;;;1.73;0.80;;;;;;;;;;5012620;28;20030;-37
2022/04/13 12:10:40;;;;;;;3.83;0.90;;;;;;;;;;5013040;28;20030;-36
2022/04/13 12:13:07;;;;;;;1.45;0.82;;;;;;;;;;5012282;28;20096;-37
2022/04/13 12:15:47;;;;;;;2.60;0.90;;;;;;;;;;4994960;28;20399;-41
2022/04/13 12:18:15;;;;;;;2.47;0.82;;;;;;;;;;5013310;28;20026;-39
2022/04/13 12:20:42;;;;;;;2.25;0.77;;;;;;;;;;5012478;28;20033;-42
2022/04/13 12:23:19;;;;;;;1.80;0.95;;;;;;;;;;5012208;28;20038;-43
2022/04/13 12:25:46;;;;;;;1.05;0.80;;;;;;;;;;5012615;28;20391;-42
2022/04/13 12:28:14;;;;;;;2.25;0.80;;;;;;;;;;5012902;28;20026;-42
2022/04/13 12:30:41;;;;;;;3.47;0.90;;;;;;;;;;5013117;28;20065;-43
2022/04/13 12:33:23;;;;;;;2.83;1.00;;;;;;;;;;5010706;28;20550;-42
2022/04/13 12:35:54;;;;;;;5.53;1.10;;;;;;;;;;5011825;28;20041;-42
2022/04/13 12:38:24;;;;;;;2.80;0.93;;;;;;;;;;5011943;28;20042;-40
2022/04/13 12:41:01;;;;;;;3.95;0.93;;;;;;;;;;5012262;28;20032;-40
2022/04/13 12:43:29;;;;;;;2.50;0.80;;;;;;;;;;5011621;28;20026;-41
2022/04/13 12:45:56;;;;;;;2.80;0.90;;;;;;;;;;5012273;28;20479;-39
2022/04/13 12:48:27;;;;;;;3.42;0.80;;;;;;;;;;5012683;28;20022;-37
2022/04/13 12:51:04;;;;;;;1.73;0.60;;;;;;;;;;5011973;28;20026;-38
2022/04/13 12:53:51;;;;;;;1.65;0.70;;;;;;;;;;5012385;28;20061;-39
2022/04/13 12:56:19;;;;;;;2.22;0.82;;;;;;;;;;4962166;28;20076;-39
2022/04/13 12:58:46;;;;;;;1.52;0.93;;;;;;;;;;5011618;28;20054;-40
2022/04/13 13:01:27;;;;;;;1.45;0.70;;;;;;;;;;5012089;28;20399;-40
2022/04/13 13:03:54;;;;;;;4.28;0.73;;;;;;;;;;5012156;28;20036;-37
2022/04/13 13:06:21;;;;;;;3.08;0.60;;;;;;;;;;5011205;28;20022;-39
2022/04/13 13:08:56;;;;;;;1.20;0.52;;;;;;;;;;5012472;28;20030;-43
2022/04/13 13:11:28;;;;;;;1.35;0.70;;;;;;;;;;4994197;28;20037;-43
2022/04/13 13:14:11;;;;;;;3.50;0.77;;;;;;;;;;5011741;28;20511;-43
2022/04/13 13:16:39;;;;;;;1.33;0.60;;;;;;;;;;5007855;28;20116;-45
2022/04/13 13:19:10;;;;;;;1.88;0.60;;;;;;;;;;5010553;28;20051;-44
2022/04/13 13:21:37;;;;;;;7.45;0.80;;;;;;;;;;5010776;28;20088;-43
2022/04/13 13:24:05;;;;;;;2.72;0.93;;;;;;;;;;5009409;28;20065;-44
2022/04/13 13:26:32;;;;;;;4.85;0.93;;;;;;;;;;5008495;28;20087;-43
2022/04/13 13:29:01;;;;;;;4.97;0.77;;;;;;;;;;5010054;28;20037;-44
2022/04/13 13:31:28;;;;;;;6.30;0.90;;;;;;;;;;5009234;28;20041;-45
2022/04/13 13:33:55;;;;;;;3.83;0.52;;;;;;;;;;5009311;28;20050;-43
2022/04/13 13:36:22;;;;;;;4.70;0.85;;;;;;;;;;5009868;28;20037;-42
2022/04/13 13:38:49;;;;;;;3.28;0.80;;;;;;;;;;5009850;28;20188;-43
2022/04/13 13:41:20;;;;;;;5.47;0.80;;;;;;;;;;5007024;28;20026;-40
2022/04/13 13:43:47;;;;;;;7.60;0.93;;;;;;;;;;5009655;28;20041;-43
2022/04/13 13:46:17;;;;;;;3.33;0.80;;;;;;;;;;5010006;28;20069;-40
2022/04/13 13:48:44;;;;;;;6.55;0.80;;;;;;;;;;5007651;28;20430;-38
2022/04/13 13:51:11;;;;;;;3.75;0.73;;;;;;;;;;5010834;28;20476;-39
2022/04/13 13:53:38;;;;;;;4.47;0.70;;;;;;;;;;5010476;28;20033;-41
2022/04/13 13:56:06;;;;;;;5.22;1.00;;;;;;;;;;5010631;28;20546;-42
2022/04/13 13:58:33;;;;;;;4.65;0.90;;;;;;;;;;5010064;28;20049;-40
2022/04/13 14:01:00;;;;;;;4.47;0.80;;;;;;;;;;5010521;28;20025;-42
2022/04/13 14:03:27;;;;;;;6.78;0.75;;;;;;;;;;5009893;28;20034;-41
2022/04/13 14:05:56;;;;;;;5.35;1.10;;;;;;;;;;5010244;28;20038;-42
2022/04/13 14:08:23;;;;;;;2.83;0.80;;;;;;;;;;5010405;28;20072;-48
2022/04/13 14:10:50;;;;;;;4.82;1.05;;;;;;;;;;5012938;28;20092;-40
2022/04/13 14:13:17;;;;;;;4.00;1.05;;;;;;;;;;5009832;28;20029;-39
2022/04/13 14:15:44;;;;;;;7.30;1.08;;;;;;;;;;5010438;28;20466;-39
2022/04/13 14:18:11;;;;;;;5.57;0.90;;;;;;;;;;5010683;28;20025;-39
2022/04/13 14:20:39;;;;;;;6.18;1.00;;;;;;;;;;5008842;28;20058;-38
2022/04/13 14:23:06;;;;;;;6.72;0.90;;;;;;;;;;5009117;28;20175;-38
2022/04/13 14:25:33;;;;;;;4.15;0.70;;;;;;;;;;5010121;28;20045;-36
2022/04/13 14:28:00;;;;;;;6.47;0.90;;;;;;;;;;5010822;28;20034;-37
2022/04/13 14:30:28;;;;;;;6.72;0.75;;;;;;;;;;5008601;28;20076;-39
2022/04/13 14:32:55;;;;;;;9.93;1.00;;;;;;;;;;5010603;28;20077;-40
2022/04/13 14:35:22;;;;;;;8.65;0.85;;;;;;;;;;5009968;28;20036;-39
2022/04/13 14:37:54;;;;;;;4.60;0.85;;;;;;;;;;5010206;28;20087;-39
2022/04/13 14:40:21;;;;;;;8.63;0.82;;;;;;;;;;5009508;28;20539;-38
2022/04/13 14:42:48;;;;;;;4.25;0.73;;;;;;;;;;4990680;28;20042;-38
2022/04/13 14:45:15;;;;;;;6.00;0.95;;;;;;;;;;5009850;28;20025;-39
2022/04/13 14:47:43;;;;;;;7.47;0.90;;;;;;;;;;5009535;28;20053;-35